Time;durP1;ratioP1;P1;durP2;ratioP2;P2;SDS_P1;SDS_P2;PMS_P1;PMS_P2;Temp;Humidity;BMP_temperature;BMP_pressure;BME280_temperature;BME280_humidity;BME280_pressure;Samples;Min_cycle;Max_cycle;Signal;HPM_P1;HPM_P2
2023/06/08 00:01:25;;;;;;;15.27;7.03;;;13.10;99.90;;;;;;5046616;28;20080;-59
2023/06/08 00:03:52;;;;;;;20.48;7.35;;;13.20;99.90;;;;;;5029444;28;20040;-61
2023/06/08 00:06:20;;;;;;;17.02;7.53;;;13.10;99.90;;;;;;5046579;28;20056;-52
2023/06/08 00:08:46;;;;;;;13.43;7.07;;;13.10;99.90;;;;;;5028127;28;20048;-59
2023/06/08 00:11:12;;;;;;;17.73;7.57;;;13.10;99.90;;;;;;5029310;28;20040;-60
2023/06/08 00:13:38;;;;;;;15.57;7.85;;;13.00;99.90;;;;;;5046725;28;20040;-61
2023/06/08 00:16:04;;;;;;;15.05;7.88;;;12.90;99.90;;;;;;5046192;28;20523;-61
2023/06/08 00:18:30;;;;;;;13.40;7.28;;;13.00;99.90;;;;;;5046132;28;20112;-52
2023/06/08 00:20:56;;;;;;;21.08;7.95;;;13.00;99.90;;;;;;5046436;28;20852;-61
2023/06/08 00:23:22;;;;;;;13.93;7.65;;;13.00;99.90;;;;;;5045482;28;20592;-54
2023/06/08 00:25:48;;;;;;;14.18;7.70;;;13.00;99.90;;;;;;5046382;28;20041;-60
2023/06/08 00:28:14;;;;;;;17.63;7.53;;;12.90;99.90;;;;;;5028665;28;20507;-54
2023/06/08 00:30:39;;;;;;;18.27;7.80;;;12.90;99.90;;;;;;5046993;28;20045;-52
2023/06/08 00:33:05;;;;;;;17.70;8.20;;;12.90;99.90;;;;;;5046039;28;20507;-56
2023/06/08 00:35:31;;;;;;;20.25;9.18;;;13.00;99.90;;;;;;5046322;28;20037;-54
2023/06/08 00:37:56;;;;;;;17.75;9.07;;;12.90;99.90;;;;;;5045924;28;20080;-54
2023/06/08 00:40:22;;;;;;;20.30;9.05;;;13.00;99.90;;;;;;5046160;28;20044;-58
2023/06/08 00:42:48;;;;;;;19.67;8.68;;;13.10;99.90;;;;;;5047036;28;20037;-60
2023/06/08 00:45:13;;;;;;;16.70;8.45;;;12.90;99.90;;;;;;5046822;28;20083;-61
2023/06/08 00:47:39;;;;;;;19.58;9.23;;;12.80;99.90;;;;;;5046564;28;20045;-59
2023/06/08 00:50:08;;;;;;;16.63;9.00;;;12.80;99.90;;;;;;5028766;28;20045;-52
2023/06/08 00:52:36;;;;;;;16.98;8.98;;;12.90;99.90;;;;;;5045835;28;20502;-61
2023/06/08 00:55:02;;;;;;;18.30;9.55;;;12.90;99.90;;;;;;5046387;28;20055;-61
2023/06/08 00:57:30;;;;;;;15.98;9.15;;;12.90;99.90;;;;;;5046094;28;20144;-57
2023/06/08 01:00:04;;;;;;;20.25;10.65;;;12.90;99.90;;;;;;5046710;28;20381;-59
2023/06/08 01:02:31;;;;;;;15.85;9.43;;;13.10;99.90;;;;;;5045826;28;20180;-60
2023/06/08 01:04:56;;;;;;;18.25;10.05;;;12.90;99.90;;;;;;5045143;28;20056;-60
2023/06/08 01:07:31;;;;;;;19.48;11.52;;;13.00;99.90;;;;;;5027813;28;20049;-59
2023/06/08 01:10:18;;;;;;;20.15;11.82;;;13.00;99.90;;;;;;5027385;28;20059;-57
2023/06/08 01:12:55;;;;;;;20.83;11.45;;;12.90;99.90;;;;;;5116030;22;20514;-61
2023/06/08 01:15:33;;;;;;;21.20;12.90;;;13.00;99.90;;;;;;5025282;28;20051;-60
2023/06/08 01:18:04;;;;;;;20.13;11.98;;;12.90;99.90;;;;;;5024945;28;20034;-54
2023/06/08 01:21:06;;;;;;;20.30;11.48;;;13.00;99.90;;;;;;5025618;28;20096;-59
2023/06/08 01:23:55;;;;;;;19.35;10.90;;;12.90;99.90;;;;;;5024993;28;20049;-59
2023/06/08 01:26:22;;;;;;;16.83;10.57;;;12.90;99.90;;;;;;5025238;28;20081;-61
2023/06/08 01:28:49;;;;;;;17.65;10.85;;;12.90;99.90;;;;;;5025420;28;20504;-59
2023/06/08 01:31:15;;;;;;;20.60;11.05;;;12.80;99.90;;;;;;5025881;28;20131;-61
2023/06/08 01:33:41;;;;;;;19.38;11.63;;;12.80;99.90;;;;;;5025572;28;20480;-61
2023/06/08 01:36:15;;;;;;;24.83;11.75;;;12.90;99.90;;;;;;5026105;28;20475;-52
2023/06/08 01:39:06;;;;;;;24.88;11.88;;;12.80;99.90;;;;;;5023939;28;20053;-61
2023/06/08 01:41:39;;;;;;;18.55;11.50;;;12.80;99.90;;;;;;5025399;28;20072;-55
2023/06/08 01:44:07;;;;;;;24.30;11.27;;;12.80;99.90;;;;;;5024901;28;20133;-59
2023/06/08 01:46:32;;;;;;;17.60;10.32;;;12.80;99.90;;;;;;5025213;28;20064;-52
2023/06/08 01:49:01;;;;;;;20.73;11.23;;;13.00;99.90;;;;;;5025726;28;20053;-60
2023/06/08 01:51:28;;;;;;;20.77;11.50;;;12.80;99.90;;;;;;5006615;28;20045;-61
2023/06/08 01:54:01;;;;;;;21.80;11.23;;;13.00;99.90;;;;;;5007941;28;20645;-62
2023/06/08 01:56:32;;;;;;;19.17;10.65;;;12.80;99.90;;;;;;5025910;28;20068;-59
2023/06/08 01:58:57;;;;;;;24.70;11.63;;;12.80;99.90;;;;;;5024977;28;20041;-59
2023/06/08 02:01:23;;;;;;;20.48;11.35;;;12.70;99.90;;;;;;5025528;28;20045;-56
2023/06/08 02:03:48;;;;;;;25.08;11.77;;;12.70;99.90;;;;;;5025152;28;20041;-52
2023/06/08 02:06:15;;;;;;;21.38;9.95;;;12.70;99.90;;;;;;5025102;28;20046;-60
2023/06/08 02:08:41;;;;;;;20.60;11.05;;;12.70;99.90;;;;;;5024510;28;20064;-61
2023/06/08 02:11:08;;;;;;;22.55;10.32;;;12.70;99.90;;;;;;5025550;28;20046;-61
2023/06/08 02:13:37;;;;;;;21.48;10.32;;;12.70;99.90;;;;;;5024948;28;20565;-60
2023/06/08 02:16:02;;;;;;;17.98;9.95;;;12.70;99.90;;;;;;5024850;28;20054;-60
2023/06/08 02:18:28;;;;;;;21.05;10.55;;;12.70;99.90;;;;;;5020979;28;20046;-61
2023/06/08 02:20:54;;;;;;;19.52;9.82;;;12.80;99.90;;;;;;5024914;28;20041;-57
2023/06/08 02:23:20;;;;;;;18.52;9.40;;;12.80;99.90;;;;;;5023763;28;20045;-53
2023/06/08 02:25:49;;;;;;;18.50;9.55;;;12.70;99.90;;;;;;5025297;28;20045;-56
2023/06/08 02:28:15;;;;;;;19.23;8.68;;;12.70;99.90;;;;;;5024635;28;20045;-60
2023/06/08 02:30:40;;;;;;;18.13;8.70;;;12.60;99.90;;;;;;5024202;28;20045;-55
2023/06/08 02:33:07;;;;;;;15.70;8.07;;;12.60;99.90;;;;;;5024130;28;20045;-57
2023/06/08 02:35:33;;;;;;;16.05;8.15;;;12.50;99.90;;;;;;5023572;28;20045;-58
2023/06/08 02:37:59;;;;;;;20.38;8.07;;;12.50;99.90;;;;;;5022483;28;20361;-55
2023/06/08 02:40:25;;;;;;;16.75;7.82;;;12.60;99.90;;;;;;5024277;28;20103;-52
2023/06/08 02:42:50;;;;;;;16.33;7.57;;;12.70;99.90;;;;;;5025484;28;20476;-59
2023/06/08 02:45:16;;;;;;;17.02;7.80;;;12.60;99.90;;;;;;5025051;28;20095;-60
2023/06/08 02:47:41;;;;;;;16.33;7.78;;;12.50;99.90;;;;;;5024607;28;20088;-61
2023/06/08 02:50:07;;;;;;;16.33;7.70;;;12.60;99.90;;;;;;5027240;28;20141;-61
2023/06/08 02:52:34;;;;;;;14.02;7.72;;;12.50;99.90;;;;;;5028056;28;20112;-61
2023/06/08 02:54:59;;;;;;;18.35;8.55;;;12.50;99.90;;;;;;5043986;28;20041;-61
2023/06/08 02:57:25;;;;;;;15.75;7.47;;;12.40;99.90;;;;;;5028281;28;20550;-61
2023/06/08 02:59:51;;;;;;;16.10;7.53;;;12.40;99.90;;;;;;5028914;28;20488;-57
2023/06/08 03:02:17;;;;;;;17.90;8.00;;;12.50;99.90;;;;;;5029118;28;20041;-58
2023/06/08 03:04:43;;;;;;;20.63;7.72;;;12.40;99.90;;;;;;5028167;28;20048;-60
2023/06/08 03:07:09;;;;;;;18.08;7.63;;;12.70;99.90;;;;;;5027558;28;20041;-58
2023/06/08 03:09:35;;;;;;;17.23;7.75;;;12.50;99.90;;;;;;5028772;28;20072;-57
2023/06/08 03:12:02;;;;;;;18.40;7.88;;;12.40;99.90;;;;;;5027965;28;20491;-55
2023/06/08 03:14:31;;;;;;;20.20;8.52;;;12.40;99.90;;;;;;5028396;28;20592;-59
2023/06/08 03:17:01;;;;;;;14.48;7.72;;;12.40;99.90;;;;;;5027913;28;20083;-61
2023/06/08 03:19:30;;;;;;;20.55;8.10;;;12.30;99.90;;;;;;5009741;28;20398;-62
2023/06/08 03:22:00;;;;;;;18.90;8.45;;;12.40;99.90;;;;;;5027623;28;20394;-60
2023/06/08 03:24:28;;;;;;;16.45;8.27;;;12.30;99.90;;;;;;5027342;28;20120;-56
2023/06/08 03:26:55;;;;;;;15.85;7.55;;;12.30;99.90;;;;;;5028274;28;20045;-52
2023/06/08 03:29:21;;;;;;;15.45;7.70;;;12.20;99.90;;;;;;5028187;28;20072;-58
2023/06/08 03:31:47;;;;;;;17.77;8.30;;;12.20;99.90;;;;;;5027573;28;20052;-57
2023/06/08 03:34:14;;;;;;;14.73;7.75;;;12.20;99.90;;;;;;5027701;28;20045;-60
2023/06/08 03:36:39;;;;;;;14.00;7.22;;;12.20;99.90;;;;;;5027063;28;20181;-58
2023/06/08 03:39:05;;;;;;;19.42;8.15;;;12.20;99.90;;;;;;5027607;28;20042;-53
2023/06/08 03:41:31;;;;;;;17.52;8.18;;;12.30;99.90;;;;;;5027690;28;20049;-59
2023/06/08 03:43:56;;;;;;;15.82;8.00;;;12.10;99.90;;;;;;5027852;28;20423;-60
2023/06/08 03:46:22;;;;;;;18.75;8.52;;;12.20;99.90;;;;;;5028412;28;20429;-60
2023/06/08 03:48:48;;;;;;;16.63;8.02;;;12.20;99.90;;;;;;5028402;28;20121;-61
2023/06/08 03:51:15;;;;;;;17.52;8.73;;;12.30;99.90;;;;;;5026909;28;20529;-58
2023/06/08 03:53:41;;;;;;;21.58;8.85;;;12.30;99.90;;;;;;5027777;28;20046;-59
2023/06/08 03:56:06;;;;;;;16.30;8.75;;;12.30;99.90;;;;;;5028011;28;20045;-61
2023/06/08 03:58:32;;;;;;;22.88;8.43;;;12.30;99.90;;;;;;5027116;28;20045;-61
2023/06/08 04:00:58;;;;;;;12.63;7.57;;;12.40;99.90;;;;;;5026992;28;20104;-62
2023/06/08 04:03:25;;;;;;;18.20;7.30;;;12.40;99.90;;;;;;5010462;28;20056;-53
2023/06/08 04:05:54;;;;;;;19.00;8.40;;;12.30;99.90;;;;;;5027201;28;20128;-61
2023/06/08 04:08:20;;;;;;;16.17;7.57;;;12.30;99.90;;;;;;5026830;28;20691;-56
2023/06/08 04:10:45;;;;;;;17.50;7.68;;;12.40;99.90;;;;;;5009389;28;20080;-62
2023/06/08 04:13:11;;;;;;;16.00;7.53;;;12.40;99.90;;;;;;5027148;28;20096;-59
2023/06/08 04:15:36;;;;;;;15.32;8.18;;;12.30;99.90;;;;;;5026593;28;20063;-60
2023/06/08 04:18:03;;;;;;;13.73;7.50;;;12.30;99.90;;;;;;5026607;28;20029;-59
2023/06/08 04:20:28;;;;;;;18.45;8.30;;;12.30;99.90;;;;;;5027560;28;20116;-59
2023/06/08 04:22:54;;;;;;;18.58;8.13;;;12.30;99.90;;;;;;5026542;28;20175;-57
2023/06/08 04:25:24;;;;;;;18.02;8.48;;;12.30;99.90;;;;;;5027242;28;20462;-58
2023/06/08 04:27:51;;;;;;;15.98;7.85;;;12.30;99.90;;;;;;5027274;28;20064;-61
2023/06/08 04:30:17;;;;;;;17.27;8.75;;;12.40;99.90;;;;;;5027609;28;20050;-57
2023/06/08 04:32:43;;;;;;;16.75;8.13;;;12.40;99.90;;;;;;5026315;28;20064;-57
2023/06/08 04:35:08;;;;;;;16.35;8.32;;;12.50;99.90;;;;;;5026243;28;20041;-50
2023/06/08 04:37:34;;;;;;;16.45;8.77;;;12.60;99.90;;;;;;5025716;28;20037;-54
2023/06/08 04:40:01;;;;;;;20.00;8.50;;;12.60;99.90;;;;;;5026239;28;20102;-57
2023/06/08 04:42:27;;;;;;;16.17;8.98;;;12.60;99.90;;;;;;5027336;28;20045;-58
2023/06/08 04:44:53;;;;;;;21.92;8.73;;;12.70;99.90;;;;;;5027429;28;20407;-56
2023/06/08 04:47:19;;;;;;;15.75;8.80;;;12.80;99.90;;;;;;5026226;28;20076;-58
2023/06/08 04:49:45;;;;;;;20.10;9.60;;;12.80;99.90;;;;;;5026404;28;20052;-61
2023/06/08 04:52:13;;;;;;;17.58;9.10;;;12.90;99.90;;;;;;5025337;28;20408;-62
2023/06/08 04:54:39;;;;;;;15.05;8.35;;;12.90;99.90;;;;;;4992143;28;20702;-58
2023/06/08 04:57:09;;;;;;;18.75;8.80;;;13.00;99.90;;;;;;5025556;28;20124;-61
2023/06/08 04:59:36;;;;;;;17.58;8.35;;;13.10;99.90;;;;;;5026485;28;20139;-55
2023/06/08 05:02:02;;;;;;;16.55;9.00;;;13.10;99.90;;;;;;5026190;28;20045;-59
2023/06/08 05:04:28;;;;;;;17.15;8.68;;;13.10;99.90;;;;;;5008115;28;20033;-59
2023/06/08 05:06:53;;;;;;;19.65;9.65;;;13.10;99.90;;;;;;5007991;28;20088;-56
2023/06/08 05:09:19;;;;;;;17.90;9.48;;;13.00;99.90;;;;;;5026054;28;20979;-62
2023/06/08 05:11:45;;;;;;;21.73;9.05;;;13.00;99.90;;;;;;5025377;28;20046;-60
2023/06/08 05:14:10;;;;;;;18.83;8.38;;;13.00;99.90;;;;;;5025644;28;20076;-62
2023/06/08 05:16:37;;;;;;;16.88;8.80;;;13.10;99.90;;;;;;5026504;28;20088;-54
2023/06/08 05:19:04;;;;;;;16.80;8.50;;;13.30;99.90;;;;;;5025796;28;20045;-61
2023/06/08 05:21:30;;;;;;;20.45;8.75;;;13.50;99.90;;;;;;5024734;28;20091;-58
2023/06/08 05:23:56;;;;;;;17.75;9.30;;;13.60;99.90;;;;;;5026758;28;20033;-62
2023/06/08 05:26:21;;;;;;;19.65;9.13;;;13.50;99.90;;;;;;5026421;28;20050;-60
2023/06/08 05:28:47;;;;;;;18.40;9.02;;;13.50;99.90;;;;;;5025144;28;20152;-56
2023/06/08 05:31:13;;;;;;;13.82;8.25;;;13.70;99.90;;;;;;5025932;28;20116;-62
2023/06/08 05:33:38;;;;;;;13.82;7.80;;;13.70;99.90;;;;;;5025693;28;20048;-60
2023/06/08 05:36:04;;;;;;;14.57;8.02;;;13.70;99.90;;;;;;5024684;28;20056;-55
2023/06/08 05:38:29;;;;;;;16.55;7.25;;;13.70;99.90;;;;;;5026025;28;20439;-56
2023/06/08 05:40:55;;;;;;;18.55;7.18;;;13.70;99.90;;;;;;5025782;28;20045;-55
2023/06/08 05:43:21;;;;;;;15.40;8.00;;;13.80;99.90;;;;;;5025298;28;20041;-60
2023/06/08 05:45:46;;;;;;;15.95;7.63;;;13.80;99.90;;;;;;5025403;28;20049;-61
2023/06/08 05:48:13;;;;;;;17.13;8.27;;;13.90;99.90;;;;;;5025371;28;20117;-60
2023/06/08 05:50:38;;;;;;;16.27;7.47;;;13.90;99.90;;;;;;5025317;28;20116;-50
2023/06/08 05:53:04;;;;;;;12.63;7.20;;;14.00;99.90;;;;;;5024018;28;20183;-62
2023/06/08 05:55:30;;;;;;;15.63;6.65;;;14.30;99.90;;;;;;5025375;28;20044;-61
2023/06/08 05:57:56;;;;;;;17.40;6.82;;;14.80;99.90;;;;;;5025275;28;20455;-61
2023/06/08 06:00:22;;;;;;;19.00;7.07;;;14.90;99.90;;;;;;5007459;28;20275;-55
2023/06/08 06:02:48;;;;;;;16.75;6.30;;;15.00;99.90;;;;;;5024428;28;20033;-60
2023/06/08 06:05:14;;;;;;;21.80;6.60;;;15.40;99.90;;;;;;5024721;28;20071;-57
2023/06/08 06:07:39;;;;;;;15.45;5.82;;;16.00;99.90;;;;;;5023925;28;20049;-57
2023/06/08 06:10:06;;;;;;;13.82;5.32;;;16.50;99.90;;;;;;5024206;28;20038;-58
2023/06/08 06:12:32;;;;;;;13.70;5.80;;;16.70;99.90;;;;;;5006850;28;20053;-55
2023/06/08 06:14:58;;;;;;;13.43;6.00;;;16.70;99.90;;;;;;5022791;28;20057;-56
2023/06/08 06:17:24;;;;;;;11.82;5.95;;;17.00;99.90;;;;;;5023121;28;20064;-59
2023/06/08 06:19:49;;;;;;;16.58;6.60;;;17.50;99.90;;;;;;5021648;28;20184;-56
2023/06/08 06:22:16;;;;;;;15.43;5.43;;;17.70;99.90;;;;;;5023057;28;20125;-64
2023/06/08 06:24:42;;;;;;;12.73;5.25;;;17.90;99.90;;;;;;5027107;28;20573;-63
2023/06/08 06:27:07;;;;;;;17.55;5.80;;;18.10;99.90;;;;;;5031033;28;20045;-60
2023/06/08 06:29:34;;;;;;;16.27;6.68;;;18.20;99.90;;;;;;5031890;28;20041;-56
2023/06/08 06:31:59;;;;;;;13.85;6.40;;;18.10;99.90;;;;;;5029342;28;20052;-60
2023/06/08 06:34:25;;;;;;;17.25;6.82;;;17.80;99.90;;;;;;5029059;28;20054;-59
2023/06/08 06:36:51;;;;;;;15.65;5.85;;;18.00;99.90;;;;;;5027647;28;20050;-62
2023/06/08 06:39:18;;;;;;;15.10;6.10;;;18.20;99.90;;;;;;5027202;28;20068;-59
2023/06/08 06:41:44;;;;;;;20.40;6.47;;;18.50;99.90;;;;;;5031512;28;20034;-61
2023/06/08 06:44:10;;;;;;;14.40;6.40;;;18.80;99.90;;;;;;5031427;28;20451;-60
2023/06/08 06:46:35;;;;;;;15.60;6.38;;;18.90;99.90;;;;;;5029717;28;20314;-56
2023/06/08 06:49:01;;;;;;;12.63;5.82;;;19.00;99.90;;;;;;5030257;28;20575;-63
2023/06/08 06:51:27;;;;;;;14.43;5.40;;;19.20;99.70;;;;;;5028448;28;20037;-58
2023/06/08 06:53:52;;;;;;;13.55;5.65;;;19.40;98.90;;;;;;5029160;28;20049;-59
2023/06/08 06:56:18;;;;;;;18.17;6.05;;;19.40;98.70;;;;;;5029441;28;20383;-55
2023/06/08 06:58:44;;;;;;;14.13;6.15;;;19.50;98.50;;;;;;5029381;28;20079;-57
2023/06/08 07:01:15;;;;;;;13.10;5.82;;;19.60;98.40;;;;;;5028898;28;20052;-58
2023/06/08 07:03:45;;;;;;;12.98;5.07;;;19.60;98.20;;;;;;5029162;28;20582;-52
2023/06/08 07:06:11;;;;;;;15.35;5.45;;;19.40;98.50;;;;;;5028137;28;20578;-60
2023/06/08 07:08:37;;;;;;;17.65;6.10;;;19.50;98.80;;;;;;5028285;28;20285;-62
2023/06/08 07:11:02;;;;;;;16.00;5.50;;;19.70;98.50;;;;;;5029458;28;20107;-63
2023/06/08 07:13:28;;;;;;;13.98;5.30;;;19.80;98.20;;;;;;5023690;28;20053;-59
2023/06/08 07:15:54;;;;;;;14.60;4.82;;;19.70;98.20;;;;;;5006899;28;20112;-61
2023/06/08 07:18:20;;;;;;;15.18;4.68;;;19.70;98.20;;;;;;5025596;28;20042;-57
2023/06/08 07:20:46;;;;;;;12.60;4.80;;;19.70;98.20;;;;;;5025994;28;20044;-56
2023/06/08 07:23:11;;;;;;;15.90;5.10;;;19.90;98.20;;;;;;5028115;28;20565;-56
2023/06/08 07:25:37;;;;;;;11.73;4.65;;;20.00;98.10;;;;;;5028750;28;20431;-59
2023/06/08 07:28:04;;;;;;;13.45;4.68;;;20.10;97.90;;;;;;5027598;28;20033;-54
2023/06/08 07:30:31;;;;;;;9.65;4.75;;;20.10;97.70;;;;;;5027763;28;20508;-57
2023/06/08 07:32:58;;;;;;;13.55;5.10;;;20.10;97.60;;;;;;5027824;28;20046;-55
2023/06/08 07:35:23;;;;;;;11.07;4.95;;;20.00;97.60;;;;;;5027461;28;20415;-57
2023/06/08 07:37:49;;;;;;;15.43;5.10;;;20.10;97.60;;;;;;5026717;28;20045;-61
2023/06/08 07:40:17;;;;;;;11.05;5.05;;;20.10;97.80;;;;;;5027565;28;20124;-61
2023/06/08 07:42:43;;;;;;;10.93;4.68;;;20.20;98.00;;;;;;5027452;28;20045;-58
2023/06/08 07:45:11;;;;;;;16.55;5.03;;;20.20;97.80;;;;;;5025529;28;20049;-57
2023/06/08 07:47:37;;;;;;;13.85;4.78;;;20.30;97.80;;;;;;5025838;28;20486;-58
2023/06/08 07:50:02;;;;;;;10.55;4.53;;;20.40;97.70;;;;;;5025904;28;20097;-52
2023/06/08 07:52:28;;;;;;;12.40;5.00;;;20.40;97.70;;;;;;5025272;28;20037;-58
2023/06/08 07:54:53;;;;;;;15.07;5.72;;;20.40;97.80;;;;;;5025442;28;20571;-61
2023/06/08 07:57:19;;;;;;;20.00;6.60;;;20.40;97.70;;;;;;5025375;28;20065;-61
2023/06/08 07:59:45;;;;;;;19.98;6.68;;;20.40;97.70;;;;;;5024526;28;20068;-61
2023/06/08 08:02:11;;;;;;;11.80;5.50;;;20.30;97.80;;;;;;5025006;28;20041;-60
2023/06/08 08:04:36;;;;;;;15.05;5.63;;;20.30;97.70;;;;;;5018550;28;20041;-62
2023/06/08 08:07:02;;;;;;;13.07;5.15;;;20.20;97.70;;;;;;5024658;28;20045;-60
2023/06/08 08:09:28;;;;;;;11.32;4.85;;;20.30;98.00;;;;;;5024873;28;20045;-58
2023/06/08 08:11:53;;;;;;;13.38;5.53;;;20.30;98.30;;;;;;5024712;28;20037;-59
2023/06/08 08:14:19;;;;;;;14.65;5.22;;;20.40;98.20;;;;;;5024670;28;20400;-58
2023/06/08 08:16:45;;;;;;;11.15;4.93;;;20.30;97.80;;;;;;5024994;28;20132;-60
2023/06/08 08:19:10;;;;;;;10.13;5.00;;;20.40;98.00;;;;;;5024907;28;20053;-63
2023/06/08 08:21:36;;;;;;;13.35;4.70;;;20.40;98.10;;;;;;5024066;28;20052;-61
2023/06/08 08:24:02;;;;;;;11.90;4.70;;;20.50;98.00;;;;;;5025059;28;20033;-58
2023/06/08 08:26:28;;;;;;;11.35;5.22;;;20.60;98.00;;;;;;5024626;28;20297;-55
2023/06/08 08:28:55;;;;;;;11.00;4.53;;;20.50;97.90;;;;;;5024646;28;20084;-59
2023/06/08 08:31:21;;;;;;;10.23;4.63;;;20.60;98.00;;;;;;5024120;28;20247;-62
2023/06/08 08:33:46;;;;;;;15.30;5.65;;;20.80;98.10;;;;;;5025034;28;20092;-56
2023/06/08 08:36:12;;;;;;;13.68;5.15;;;20.90;98.00;;;;;;5006140;28;20037;-62
2023/06/08 08:38:40;;;;;;;10.65;5.10;;;20.90;97.80;;;;;;5024493;28;20045;-62
2023/06/08 08:41:09;;;;;;;12.75;5.20;;;21.00;97.60;;;;;;4990672;28;20084;-61
2023/06/08 08:43:43;;;;;;;16.35;5.20;;;21.10;97.80;;;;;;5024499;28;20563;-62
2023/06/08 08:46:09;;;;;;;20.55;5.10;;;21.10;97.50;;;;;;5024530;28;20038;-57
2023/06/08 08:48:44;;;;;;;12.65;5.20;;;21.20;97.60;;;;;;5024168;28;20487;-57
2023/06/08 08:51:18;;;;;;;9.05;4.15;;;21.30;97.30;;;;;;5024178;28;20041;-62
2023/06/08 08:53:47;;;;;;;13.80;4.90;;;21.40;96.90;;;;;;5024436;28;20480;-50
2023/06/08 08:56:20;;;;;;;11.13;4.85;;;21.30;97.00;;;;;;5023829;28;20145;-60
2023/06/08 08:58:48;;;;;;;16.40;5.38;;;21.40;97.30;;;;;;5005951;28;20099;-61
2023/06/08 09:01:14;;;;;;;13.43;5.05;;;21.60;97.20;;;;;;5024460;28;20041;-62
2023/06/08 09:03:40;;;;;;;13.00;5.18;;;21.60;97.00;;;;;;5008993;28;20029;-53
2023/06/08 09:06:08;;;;;;;14.93;5.45;;;21.80;97.10;;;;;;5025555;28;20392;-60
2023/06/08 09:08:33;;;;;;;12.85;5.45;;;22.00;97.20;;;;;;5027234;28;20079;-62
2023/06/08 09:11:04;;;;;;;17.20;5.57;;;22.10;97.00;;;;;;5026937;28;20073;-59
2023/06/08 09:13:34;;;;;;;10.82;4.40;;;22.30;96.40;;;;;;5026437;28;20103;-59
2023/06/08 09:16:17;;;;;;;11.32;4.60;;;22.30;95.60;;;;;;5026578;28;20091;-57
2023/06/08 09:19:05;;;;;;;9.32;4.35;;;22.30;95.80;;;;;;5025950;28;20047;-56
2023/06/08 09:21:32;;;;;;;10.55;4.72;;;22.30;96.00;;;;;;5025840;28;20052;-50
2023/06/08 09:24:14;;;;;;;9.75;4.70;;;22.50;96.20;;;;;;5008852;28;20064;-55
2023/06/08 09:26:58;;;;;;;10.90;4.47;;;22.70;95.70;;;;;;5024290;28;20037;-56
2023/06/08 09:29:40;;;;;;;9.53;4.47;;;22.70;95.50;;;;;;5010670;28;20037;-56
2023/06/08 09:32:12;;;;;;;12.75;4.40;;;22.90;95.40;;;;;;5026366;28;20288;-55
2023/06/08 09:34:54;;;;;;;11.48;4.70;;;22.90;95.20;;;;;;5026851;28;20049;-59
2023/06/08 09:37:26;;;;;;;14.43;4.82;;;22.90;95.20;;;;;;5025291;28;20066;-59
2023/06/08 09:39:51;;;;;;;12.52;5.35;;;23.00;95.30;;;;;;5026368;28;20069;-59
2023/06/08 09:42:17;;;;;;;15.18;5.28;;;23.10;95.40;;;;;;5025750;28;20041;-62
2023/06/08 09:44:43;;;;;;;10.90;5.38;;;23.10;95.40;;;;;;5026634;28;20046;-57
2023/06/08 09:47:22;;;;;;;11.27;4.65;;;23.20;95.20;;;;;;5026224;28;20480;-60
2023/06/08 09:49:55;;;;;;;9.88;4.30;;;23.00;94.20;;;;;;5025903;28;20041;-61
2023/06/08 09:52:22;;;;;;;11.23;4.77;;;23.10;94.90;;;;;;5024872;28;20064;-57
2023/06/08 09:54:49;;;;;;;15.27;5.07;;;23.30;94.90;;;;;;5025838;28;20711;-59
2023/06/08 09:57:16;;;;;;;13.07;4.90;;;23.50;94.80;;;;;;5023873;28;20128;-59
2023/06/08 09:59:55;;;;;;;10.77;4.78;;;23.70;94.60;;;;;;5023182;28;20053;-58
2023/06/08 10:02:27;;;;;;;13.48;4.43;;;23.90;93.50;;;;;;5005320;28;20527;-60
2023/06/08 10:04:54;;;;;;;13.25;5.28;;;24.10;94.30;;;;;;5022557;28;20041;-60
2023/06/08 10:07:26;;;;;;;13.48;4.90;;;24.20;94.20;;;;;;5020811;28;20048;-60
2023/06/08 10:09:59;;;;;;;13.32;5.38;;;24.30;93.90;;;;;;5021082;28;20042;-63
2023/06/08 10:12:28;;;;;;;9.98;4.53;;;24.10;93.60;;;;;;5021710;28;20261;-62
2023/06/08 10:14:56;;;;;;;9.90;4.82;;;24.10;93.90;;;;;;5021642;28;20064;-57
2023/06/08 10:17:22;;;;;;;13.13;5.03;;;24.20;93.60;;;;;;5021347;28;20332;-60
2023/06/08 10:19:48;;;;;;;12.95;4.82;;;24.20;93.70;;;;;;5004421;28;20361;-63
2023/06/08 10:22:14;;;;;;;12.38;5.15;;;24.40;93.40;;;;;;5022914;28;20041;-64
2023/06/08 10:24:41;;;;;;;11.93;4.88;;;24.40;93.30;;;;;;5022951;28;20124;-61
2023/06/08 10:27:10;;;;;;;11.68;4.60;;;24.50;93.40;;;;;;5023107;28;20042;-58
2023/06/08 10:29:36;;;;;;;11.98;4.80;;;24.70;92.70;;;;;;5023256;28;20041;-65
2023/06/08 10:32:09;;;;;;;10.23;4.50;;;24.70;92.70;;;;;;5023055;28;20042;-61
2023/06/08 10:34:39;;;;;;;12.02;4.68;;;24.70;92.40;;;;;;5023234;28;20064;-62
2023/06/08 10:37:05;;;;;;;9.98;4.35;;;24.70;92.10;;;;;;5022644;28;20125;-58
2023/06/08 10:39:46;;;;;;;10.20;4.82;;;24.70;92.50;;;;;;5022745;28;20529;-65
2023/06/08 10:42:18;;;;;;;9.07;4.32;;;24.80;92.00;;;;;;5023319;28;20507;-64
2023/06/08 10:44:52;;;;;;;12.98;4.80;;;24.90;92.20;;;;;;5005399;28;20081;-55
2023/06/08 10:47:17;;;;;;;11.63;4.38;;;24.90;92.10;;;;;;5005490;28;20033;-53
2023/06/08 10:49:56;;;;;;;13.40;4.88;;;25.10;92.10;;;;;;5023254;28;20353;-64
2023/06/08 10:52:22;;;;;;;12.15;4.50;;;25.10;91.30;;;;;;5005003;28;20530;-64
2023/06/08 10:55:04;;;;;;;14.15;4.18;;;25.10;92.10;;;;;;5022983;28;20439;-56
2023/06/08 10:57:34;;;;;;;11.25;4.65;;;25.20;92.20;;;;;;5022390;28;20052;-64
2023/06/08 11:00:00;;;;;;;9.55;4.40;;;25.20;91.90;;;;;;5022985;28;20470;-65
2023/06/08 11:02:29;;;;;;;16.15;4.82;;;25.20;92.10;;;;;;5022816;28;20038;-55
2023/06/08 11:04:56;;;;;;;9.77;4.40;;;25.20;91.60;;;;;;5021801;28;20045;-65
2023/06/08 11:07:26;;;;;;;12.05;4.68;;;25.20;91.90;;;;;;5024257;28;20416;-64
2023/06/08 11:09:51;;;;;;;11.52;4.78;;;25.40;91.60;;;;;;5024881;28;20120;-59
2023/06/08 11:12:19;;;;;;;8.75;4.72;;;25.40;91.30;;;;;;5027032;28;20084;-63
2023/06/08 11:14:45;;;;;;;9.05;4.43;;;25.40;91.50;;;;;;5026981;28;20123;-63
2023/06/08 11:17:11;;;;;;;13.10;4.38;;;25.60;91.50;;;;;;5026427;28;20041;-56
2023/06/08 11:19:36;;;;;;;10.93;4.63;;;25.60;91.40;;;;;;5026446;28;20077;-63
2023/06/08 11:22:03;;;;;;;11.05;4.63;;;25.60;91.40;;;;;;5025081;28;20108;-61
2023/06/08 11:24:28;;;;;;;12.18;4.95;;;25.60;91.30;;;;;;5026322;28;20136;-67
2023/06/08 11:27:00;;;;;;;10.02;4.57;;;25.40;91.40;;;;;;5026183;28;20044;-61
2023/06/08 11:29:27;;;;;;;12.20;4.80;;;25.40;91.20;;;;;;5025680;28;20089;-62
2023/06/08 11:31:53;;;;;;;13.10;4.55;;;25.30;91.60;;;;;;5026274;28;20266;-64
2023/06/08 11:34:20;;;;;;;9.25;4.43;;;25.40;91.60;;;;;;5026491;28;20361;-62
2023/06/08 11:36:46;;;;;;;9.48;4.25;;;25.50;91.50;;;;;;5001596;28;20052;-57
2023/06/08 11:39:11;;;;;;;10.85;4.45;;;25.60;91.80;;;;;;5025257;28;20033;-57
2023/06/08 11:41:46;;;;;;;11.88;5.22;;;25.60;91.40;;;;;;5026057;28;20092;-65
2023/06/08 11:44:15;;;;;;;12.85;5.35;;;25.50;91.10;;;;;;5025612;28;20377;-60
2023/06/08 11:46:41;;;;;;;9.45;4.90;;;25.30;91.10;;;;;;5008450;28;20308;-64
2023/06/08 11:49:10;;;;;;;8.52;4.75;;;25.20;92.00;;;;;;5025819;28;20127;-62
2023/06/08 11:51:44;;;;;;;8.90;4.72;;;25.20;92.30;;;;;;5024319;28;20033;-52
2023/06/08 11:54:09;;;;;;;9.00;4.30;;;25.20;91.50;;;;;;5026077;28;20046;-65
2023/06/08 11:56:35;;;;;;;12.57;4.68;;;25.10;92.10;;;;;;5008006;28;20400;-59
2023/06/08 11:59:02;;;;;;;8.88;4.30;;;25.20;91.80;;;;;;5024869;28;20506;-63
2023/06/08 12:01:28;;;;;;;10.45;4.65;;;25.30;91.80;;;;;;5025791;28;20056;-65
2023/06/08 12:03:54;;;;;;;12.13;4.07;;;25.40;91.60;;;;;;5025568;28;20037;-64
2023/06/08 12:06:26;;;;;;;9.15;4.50;;;25.50;91.40;;;;;;5025053;28;20083;-61
2023/06/08 12:08:54;;;;;;;8.23;4.38;;;25.60;91.30;;;;;;5025685;28;20096;-61
2023/06/08 12:11:21;;;;;;;12.18;4.85;;;25.70;91.30;;;;;;5025807;28;20106;-66
2023/06/08 12:13:46;;;;;;;9.95;4.40;;;25.60;91.40;;;;;;5009396;28;20112;-62
2023/06/08 12:16:12;;;;;;;8.48;4.30;;;25.60;91.10;;;;;;5005402;28;20053;-64
2023/06/08 12:18:40;;;;;;;10.90;4.47;;;25.60;91.10;;;;;;5005549;28;20034;-60
2023/06/08 12:21:07;;;;;;;9.95;4.40;;;25.80;91.00;;;;;;5005350;28;20078;-57
2023/06/08 12:23:33;;;;;;;9.07;4.13;;;25.80;91.00;;;;;;5005903;28;20034;-66
2023/06/08 12:25:59;;;;;;;9.85;4.50;;;25.90;90.90;;;;;;5007107;28;20052;-58
2023/06/08 12:28:25;;;;;;;10.35;4.68;;;25.90;90.70;;;;;;5006847;28;20377;-65
2023/06/08 12:30:52;;;;;;;8.50;4.68;;;25.80;90.70;;;;;;5007133;28;20053;-62
2023/06/08 12:33:19;;;;;;;12.18;4.35;;;25.80;90.70;;;;;;5007466;28;20084;-60
2023/06/08 12:35:49;;;;;;;11.50;4.18;;;25.70;90.60;;;;;;5006676;28;20062;-61
2023/06/08 12:38:15;;;;;;;10.57;4.50;;;25.70;90.30;;;;;;4989258;28;20038;-59